BGA123N LFRZ-EDHI
Flight info
| Callsign | BGA123N |
|---|---|
| Flight time | 1h 35m |
| Altitude | 30000 |
| Route | ANG UL976 OBATO UN873 BAZOS DCT ADUTO/N0412F310 DCT SOGPO DCT APNOC |
| Aircraft | A337/H-SDE3GHIJ2J3J5M1RVWXY/LB2D1 |
Departure
| Time | 2026-04-28 03:29 |
|---|---|
| Airport | Saint-Nazaire-Montoir Airport (LFRZ) |
Arrival
| Time | 2026-04-28 05:04 |
|---|---|
| Airport | Hamburg-Finkenwerder Airport (EDHI) |
| Time | Latitude | Longitude | Altitude | Speed | Heading |
|---|---|---|---|---|---|
| 2026-04-28 03:08 | 47.31397 | -2.16084 | 24 ft | 0 kts | 342° |
| 2026-04-28 03:19 | 47.31389 | -2.16080 | 24 ft | 4 kts | 345° |
| 2026-04-28 03:19 | 47.31363 | -2.16073 | 24 ft | 4 kts | 359° |
| 2026-04-28 03:19 | 47.31336 | -2.16077 | 24 ft | 5 kts | 14° |
| 2026-04-28 03:20 | 47.31311 | -2.16091 | 27 ft | 6 kts | 33° |
| 2026-04-28 03:20 | 47.31300 | -2.16102 | 26 ft | 5 kts | 42° |
| 2026-04-28 03:23 | 47.31305 | -2.16096 | 25 ft | 4 kts | 44° |
| 2026-04-28 03:23 | 47.31342 | -2.16025 | 24 ft | 15 kts | 59° |
| 2026-04-28 03:23 | 47.31318 | -2.15848 | 27 ft | 24 kts | 122° |
| 2026-04-28 03:23 | 47.31224 | -2.15749 | 24 ft | 5 kts | 162° |
| 2026-04-28 03:24 | 47.31217 | -2.15746 | 28 ft | 3 kts | 162° |
| 2026-04-28 03:24 | 47.31136 | -2.15709 | 28 ft | 19 kts | 162° |
| 2026-04-28 03:24 | 47.31051 | -2.15747 | 47 ft | 12 kts | 250° |
| 2026-04-28 03:24 | 47.31018 | -2.15904 | 27 ft | 22 kts | 254° |
| 2026-04-28 03:25 | 47.30967 | -2.16173 | 27 ft | 32 kts | 256° |
| 2026-04-28 03:25 | 47.30945 | -2.16402 | 24 ft | 2 kts | 250° |
| 2026-04-28 03:25 | 47.30921 | -2.16401 | 30 ft | 0 kts | 173° |
| 2026-04-28 03:25 | 47.30920 | -2.16400 | 30 ft | 1 kts | 170° |
| 2026-04-28 03:26 | 47.30921 | -2.16382 | 24 ft | 4 kts | 73° |
| 2026-04-28 03:26 | 47.30925 | -2.16370 | 30 ft | 0 kts | 71° |
| 2026-04-28 03:26 | 47.30925 | -2.16369 | 24 ft | 0 kts | 71° |
| 2026-04-28 03:28 | 47.30925 | -2.16367 | 24 ft | 3 kts | 71° |
| 2026-04-28 03:28 | 47.30983 | -2.16109 | 28 ft | 56 kts | 72° |
| 2026-04-28 03:28 | 47.31145 | -2.15278 | 27 ft | 111 kts | 73° |
| 2026-04-28 03:28 | 47.31419 | -2.13940 | 36 ft | 158 kts | 70° |
| 2026-04-28 03:29 | 47.31760 | -2.12380 | 527 ft | 163 kts | 68° |
| 2026-04-28 03:29 | 47.32100 | -2.10801 | 1280 ft | 161 kts | 71° |
| 2026-04-28 03:29 | 47.32427 | -2.09115 | 1737 ft | 184 kts | 72° |
| 2026-04-28 03:29 | 47.32805 | -2.07176 | 2008 ft | 210 kts | 72° |
| 2026-04-28 03:30 | 47.33231 | -2.04978 | 2221 ft | 235 kts | 73° |
| 2026-04-28 03:30 | 47.33663 | -2.02587 | 2743 ft | 245 kts | 73° |
| 2026-04-28 03:30 | 47.34096 | -2.00131 | 3374 ft | 249 kts | 73° |
| 2026-04-28 03:30 | 47.34531 | -1.97648 | 4033 ft | 252 kts | 73° |
| 2026-04-28 03:31 | 47.34971 | -1.95142 | 4708 ft | 255 kts | 74° |
| 2026-04-28 03:31 | 47.35419 | -1.92583 | 5366 ft | 259 kts | 74° |
| 2026-04-28 03:31 | 47.35873 | -1.89987 | 6048 ft | 263 kts | 74° |
| 2026-04-28 03:31 | 47.36334 | -1.87354 | 6717 ft | 267 kts | 74° |
| 2026-04-28 03:32 | 47.36800 | -1.84687 | 7371 ft | 271 kts | 74° |
| 2026-04-28 03:32 | 47.37275 | -1.81964 | 8037 ft | 275 kts | 74° |
| 2026-04-28 03:32 | 47.37749 | -1.79248 | 8678 ft | 280 kts | 74° |
| 2026-04-28 03:32 | 47.38241 | -1.76417 | 9355 ft | 284 kts | 74° |
| 2026-04-28 03:33 | 47.38735 | -1.73575 | 10002 ft | 288 kts | 74° |
| 2026-04-28 03:33 | 47.39233 | -1.70704 | 10416 ft | 300 kts | 74° |
| 2026-04-28 03:33 | 47.39766 | -1.67631 | 10644 ft | 317 kts | 74° |
| 2026-04-28 03:33 | 47.40320 | -1.64427 | 10977 ft | 328 kts | 74° |
| 2026-04-28 03:34 | 47.40890 | -1.61123 | 11483 ft | 334 kts | 74° |
| 2026-04-28 03:34 | 47.41466 | -1.57773 | 12014 ft | 338 kts | 74° |
| 2026-04-28 03:34 | 47.42047 | -1.54391 | 12559 ft | 342 kts | 74° |
| 2026-04-28 03:34 | 47.42634 | -1.50965 | 13096 ft | 346 kts | 74° |
| 2026-04-28 03:35 | 47.43228 | -1.47496 | 13648 ft | 350 kts | 74° |
| 2026-04-28 03:35 | 47.43830 | -1.43973 | 14147 ft | 354 kts | 74° |
| 2026-04-28 03:35 | 47.44434 | -1.40429 | 14628 ft | 358 kts | 74° |
| 2026-04-28 03:35 | 47.45042 | -1.36854 | 15113 ft | 361 kts | 75° |
| 2026-04-28 03:36 | 47.45655 | -1.33240 | 15597 ft | 364 kts | 75° |
| 2026-04-28 03:36 | 47.46272 | -1.29596 | 16077 ft | 367 kts | 75° |
| 2026-04-28 03:36 | 47.46894 | -1.25921 | 16542 ft | 370 kts | 75° |
| 2026-04-28 03:36 | 47.47519 | -1.22214 | 17005 ft | 374 kts | 75° |
| 2026-04-28 03:37 | 47.48148 | -1.18477 | 17449 ft | 377 kts | 75° |
| 2026-04-28 03:37 | 47.48802 | -1.14701 | 17907 ft | 380 kts | 71° |
| 2026-04-28 03:37 | 47.49423 | -1.12276 | 18188 ft | 381 kts | 63° |
| 2026-04-28 03:37 | 47.50812 | -1.08967 | 18607 ft | 381 kts | 51° |
| 2026-04-28 03:38 | 47.52500 | -1.05923 | 19016 ft | 382 kts | 46° |
| 2026-04-28 03:38 | 47.54328 | -1.03056 | 19419 ft | 383 kts | 43° |
| 2026-04-28 03:38 | 47.56229 | -1.00281 | 19809 ft | 385 kts | 41° |
| 2026-04-28 03:38 | 47.58797 | -0.96625 | 20329 ft | 387 kts | 41° |
| 2026-04-28 03:39 | 47.60108 | -0.94756 | 20588 ft | 389 kts | 41° |
| 2026-04-28 03:39 | 47.62054 | -0.91953 | 20944 ft | 392 kts | 41° |
| 2026-04-28 03:39 | 47.64004 | -0.89110 | 21315 ft | 394 kts | 42° |
| 2026-04-28 03:39 | 47.65955 | -0.86237 | 21691 ft | 396 kts | 42° |
| 2026-04-28 03:40 | 47.67914 | -0.83333 | 22040 ft | 398 kts | 43° |
| 2026-04-28 03:40 | 47.69876 | -0.80414 | 22363 ft | 402 kts | 43° |
| 2026-04-28 03:40 | 47.71852 | -0.77469 | 22695 ft | 404 kts | 43° |
| 2026-04-28 03:40 | 47.73839 | -0.74502 | 23049 ft | 406 kts | 43° |
| 2026-04-28 03:41 | 47.75833 | -0.71522 | 23381 ft | 408 kts | 43° |
| 2026-04-28 03:41 | 47.77836 | -0.68527 | 23697 ft | 410 kts | 43° |
| 2026-04-28 03:41 | 47.79854 | -0.65509 | 23955 ft | 412 kts | 43° |
| 2026-04-28 03:41 | 47.81883 | -0.62471 | 24175 ft | 416 kts | 42° |
| 2026-04-28 03:42 | 47.83936 | -0.59394 | 24424 ft | 418 kts | 42° |
| 2026-04-28 03:42 | 47.85982 | -0.56322 | 24756 ft | 418 kts | 42° |
| 2026-04-28 03:42 | 47.88022 | -0.53254 | 25091 ft | 417 kts | 42° |
| 2026-04-28 03:42 | 47.90039 | -0.50219 | 25386 ft | 417 kts | 42° |
| 2026-04-28 03:43 | 47.92086 | -0.47135 | 25696 ft | 418 kts | 42° |
| 2026-04-28 03:43 | 47.94131 | -0.44050 | 25994 ft | 418 kts | 42° |
| 2026-04-28 03:43 | 47.96174 | -0.40965 | 26289 ft | 418 kts | 42° |
| 2026-04-28 03:43 | 47.98212 | -0.37884 | 26593 ft | 418 kts | 42° |
| 2026-04-28 03:44 | 48.00260 | -0.34785 | 26917 ft | 418 kts | 43° |
| 2026-04-28 03:44 | 48.02307 | -0.31682 | 27220 ft | 419 kts | 43° |
| 2026-04-28 03:44 | 48.04348 | -0.28586 | 27482 ft | 419 kts | 43° |
| 2026-04-28 03:44 | 48.06350 | -0.25427 | 27774 ft | 421 kts | 47° |
| 2026-04-28 03:45 | 48.08219 | -0.22038 | 28074 ft | 421 kts | 49° |
| 2026-04-28 03:45 | 48.10044 | -0.18624 | 28359 ft | 421 kts | 50° |
| 2026-04-28 03:45 | 48.11848 | -0.15178 | 28638 ft | 421 kts | 50° |
| 2026-04-28 03:45 | 48.13644 | -0.11708 | 28922 ft | 421 kts | 50° |
| 2026-04-28 03:46 | 48.15435 | -0.08230 | 29224 ft | 421 kts | 50° |
| 2026-04-28 03:46 | 48.17225 | -0.04751 | 29506 ft | 421 kts | 50° |
| 2026-04-28 03:46 | 48.19015 | -0.01272 | 29758 ft | 421 kts | 50° |
| 2026-04-28 03:46 | 48.20806 | 0.02208 | 29895 ft | 425 kts | 50° |
| 2026-04-28 03:47 | 48.22627 | 0.05745 | 30077 ft | 428 kts | 50° |
| 2026-04-28 03:47 | 48.24439 | 0.09267 | 30409 ft | 425 kts | 50° |
| 2026-04-28 03:47 | 48.26242 | 0.12776 | 30692 ft | 423 kts | 50° |
| 2026-04-28 03:47 | 48.28038 | 0.16277 | 30926 ft | 423 kts | 50° |
| 2026-04-28 03:48 | 48.29830 | 0.19774 | 31117 ft | 423 kts | 50° |
| 2026-04-28 03:48 | 48.31612 | 0.23252 | 31140 ft | 428 kts | 50° |
| 2026-04-28 03:48 | 48.35267 | 0.30402 | 31142 ft | 432 kts | 50° |
| 2026-04-28 03:49 | 48.38924 | 0.37579 | 31145 ft | 432 kts | 50° |
| 2026-04-28 03:49 | 48.42595 | 0.44741 | 31152 ft | 433 kts | 50° |
| 2026-04-28 03:50 | 48.46300 | 0.51943 | 31144 ft | 435 kts | 50° |
| 2026-04-28 03:50 | 48.50002 | 0.59159 | 31147 ft | 436 kts | 50° |
| 2026-04-28 03:51 | 48.54208 | 0.65641 | 31149 ft | 430 kts | 36° |
| 2026-04-28 03:51 | 48.58905 | 0.71216 | 31150 ft | 429 kts | 33° |
| 2026-04-28 03:52 | 48.63697 | 0.76641 | 31148 ft | 430 kts | 33° |
| 2026-04-28 03:52 | 48.68452 | 0.82022 | 31155 ft | 428 kts | 33° |
| 2026-04-28 03:53 | 48.73198 | 0.87438 | 31144 ft | 427 kts | 33° |
| 2026-04-28 03:53 | 48.77960 | 0.92899 | 31154 ft | 431 kts | 33° |
| 2026-04-28 03:54 | 48.82746 | 0.98408 | 31148 ft | 432 kts | 33° |
| 2026-04-28 03:54 | 48.87516 | 1.03913 | 31147 ft | 432 kts | 33° |
| 2026-04-28 03:55 | 48.92328 | 1.09480 | 31133 ft | 433 kts | 33° |
| 2026-04-28 03:55 | 48.97112 | 1.15025 | 31128 ft | 433 kts | 33° |
| 2026-04-28 03:56 | 49.01909 | 1.20603 | 31130 ft | 433 kts | 34° |
| 2026-04-28 03:56 | 49.06423 | 1.26734 | 31128 ft | 436 kts | 39° |
| 2026-04-28 03:57 | 49.10838 | 1.33052 | 31124 ft | 434 kts | 40° |
| 2026-04-28 03:57 | 49.15236 | 1.39433 | 31135 ft | 437 kts | 40° |
| 2026-04-28 03:58 | 49.19622 | 1.45806 | 31141 ft | 438 kts | 40° |
| 2026-04-28 03:58 | 49.24033 | 1.52220 | 31153 ft | 438 kts | 40° |
| 2026-04-28 03:59 | 49.28480 | 1.58693 | 31155 ft | 438 kts | 40° |
| 2026-04-28 03:59 | 49.32861 | 1.65085 | 31150 ft | 437 kts | 40° |
| 2026-04-28 04:00 | 49.37257 | 1.71513 | 31155 ft | 436 kts | 40° |
| 2026-04-28 04:00 | 49.41649 | 1.77952 | 31153 ft | 437 kts | 40° |
| 2026-04-28 04:01 | 49.46047 | 1.84415 | 31152 ft | 439 kts | 40° |
| 2026-04-28 04:01 | 49.50470 | 1.90934 | 31132 ft | 440 kts | 40° |
| 2026-04-28 04:02 | 49.54934 | 1.97343 | 31131 ft | 436 kts | 39° |
| 2026-04-28 04:02 | 49.59421 | 2.03597 | 31133 ft | 435 kts | 39° |
| 2026-04-28 04:03 | 49.63921 | 2.09868 | 31135 ft | 435 kts | 39° |
| 2026-04-28 04:03 | 49.68400 | 2.16152 | 31137 ft | 435 kts | 39° |
| 2026-04-28 04:04 | 49.72876 | 2.22463 | 31162 ft | 435 kts | 40° |
| 2026-04-28 04:04 | 49.77332 | 2.28766 | 31143 ft | 434 kts | 40° |
| 2026-04-28 04:05 | 49.81793 | 2.35093 | 31149 ft | 435 kts | 40° |
| 2026-04-28 04:05 | 49.86259 | 2.41443 | 31152 ft | 435 kts | 40° |
| 2026-04-28 04:06 | 49.90716 | 2.47798 | 31153 ft | 435 kts | 40° |
| 2026-04-28 04:06 | 49.95168 | 2.54159 | 31146 ft | 435 kts | 40° |
| 2026-04-28 04:07 | 49.99617 | 2.60532 | 31130 ft | 433 kts | 40° |
| 2026-04-28 04:07 | 50.04042 | 2.66891 | 31130 ft | 433 kts | 40° |
| 2026-04-28 04:08 | 50.08432 | 2.73216 | 31132 ft | 433 kts | 40° |
| 2026-04-28 04:08 | 50.12886 | 2.79647 | 31137 ft | 435 kts | 40° |
| 2026-04-28 04:09 | 50.17296 | 2.86031 | 31172 ft | 435 kts | 41° |
| 2026-04-28 04:09 | 50.21715 | 2.92448 | 31165 ft | 433 kts | 41° |
| 2026-04-28 04:10 | 50.26113 | 2.98852 | 31159 ft | 433 kts | 41° |
| 2026-04-28 04:10 | 50.30516 | 3.05280 | 31160 ft | 433 kts | 41° |
| 2026-04-28 04:11 | 50.34907 | 3.11705 | 31159 ft | 433 kts | 41° |
| 2026-04-28 04:11 | 50.39296 | 3.18145 | 31152 ft | 432 kts | 41° |
| 2026-04-28 04:12 | 50.43674 | 3.24587 | 31152 ft | 430 kts | 41° |
| 2026-04-28 04:12 | 50.48040 | 3.31028 | 31159 ft | 432 kts | 41° |
| 2026-04-28 04:13 | 50.52270 | 3.37728 | 31160 ft | 432 kts | 47° |
| 2026-04-28 04:13 | 50.56184 | 3.44923 | 31162 ft | 433 kts | 49° |
| 2026-04-28 04:14 | 50.60029 | 3.52219 | 31181 ft | 433 kts | 50° |
| 2026-04-28 04:14 | 50.63847 | 3.59508 | 31175 ft | 430 kts | 50° |
| 2026-04-28 04:15 | 50.67654 | 3.66781 | 31159 ft | 429 kts | 50° |
| 2026-04-28 04:16 | 50.73357 | 3.77686 | 31169 ft | 430 kts | 50° |
| 2026-04-28 04:16 | 50.77163 | 3.84988 | 31170 ft | 431 kts | 50° |
| 2026-04-28 04:17 | 50.80951 | 3.92275 | 31170 ft | 431 kts | 50° |
| 2026-04-28 04:17 | 50.84746 | 3.99598 | 31178 ft | 428 kts | 50° |
| 2026-04-28 04:18 | 50.88506 | 4.06873 | 31179 ft | 426 kts | 50° |
| 2026-04-28 04:18 | 50.92258 | 4.14156 | 31181 ft | 427 kts | 50° |
| 2026-04-28 04:19 | 50.96006 | 4.21450 | 31182 ft | 427 kts | 50° |
| 2026-04-28 04:19 | 50.99753 | 4.28762 | 31184 ft | 427 kts | 50° |
| 2026-04-28 04:20 | 51.03491 | 4.36078 | 31183 ft | 427 kts | 51° |
| 2026-04-28 04:20 | 51.07229 | 4.43413 | 31208 ft | 427 kts | 51° |
| 2026-04-28 04:21 | 51.10957 | 4.50751 | 31211 ft | 427 kts | 51° |
| 2026-04-28 04:21 | 51.14054 | 4.56861 | 31211 ft | 427 kts | 51° |
| 2026-04-28 04:22 | 51.17775 | 4.64225 | 31209 ft | 427 kts | 51° |
| 2026-04-28 04:22 | 51.21496 | 4.71608 | 31184 ft | 427 kts | 51° |
| 2026-04-28 04:23 | 51.25211 | 4.79000 | 31176 ft | 427 kts | 51° |
| 2026-04-28 04:23 | 51.28927 | 4.86415 | 31184 ft | 427 kts | 51° |
| 2026-04-28 04:24 | 51.32633 | 4.93832 | 31185 ft | 427 kts | 51° |
| 2026-04-28 04:24 | 51.33888 | 4.96349 | 31200 ft | 427 kts | 51° |
| 2026-04-28 04:25 | 51.35064 | 4.98709 | 31200 ft | 427 kts | 51° |
| 2026-04-28 04:25 | 51.38771 | 5.06163 | 31202 ft | 427 kts | 51° |
| 2026-04-28 04:26 | 51.42468 | 5.13619 | 31206 ft | 427 kts | 51° |
| 2026-04-28 04:26 | 51.46161 | 5.21088 | 31228 ft | 427 kts | 51° |
| 2026-04-28 04:27 | 51.49853 | 5.28577 | 31211 ft | 423 kts | 51° |
| 2026-04-28 04:27 | 51.53481 | 5.35958 | 31207 ft | 425 kts | 51° |
| 2026-04-28 04:28 | 51.57149 | 5.43443 | 31211 ft | 426 kts | 51° |
| 2026-04-28 04:28 | 51.60806 | 5.50926 | 31203 ft | 425 kts | 51° |
| 2026-04-28 04:29 | 51.64456 | 5.58416 | 31207 ft | 425 kts | 51° |
| 2026-04-28 04:29 | 51.68106 | 5.65928 | 31218 ft | 425 kts | 51° |
| 2026-04-28 04:30 | 51.71729 | 5.73408 | 31209 ft | 421 kts | 51° |
| 2026-04-28 04:30 | 51.75329 | 5.80862 | 31211 ft | 421 kts | 52° |
| 2026-04-28 04:31 | 51.78920 | 5.88318 | 31219 ft | 422 kts | 51° |
| 2026-04-28 04:31 | 51.82524 | 5.95822 | 31212 ft | 423 kts | 51° |
| 2026-04-28 04:32 | 51.86134 | 6.03360 | 31219 ft | 423 kts | 51° |
| 2026-04-28 04:32 | 51.89730 | 6.10891 | 31217 ft | 423 kts | 51° |
| 2026-04-28 04:33 | 51.93320 | 6.18434 | 31226 ft | 421 kts | 51° |
| 2026-04-28 04:33 | 51.96888 | 6.25963 | 31231 ft | 421 kts | 51° |
| 2026-04-28 04:34 | 52.00430 | 6.33512 | 31223 ft | 421 kts | 51° |
| 2026-04-28 04:34 | 52.03935 | 6.41045 | 31227 ft | 421 kts | 52° |
| 2026-04-28 04:35 | 52.07409 | 6.48697 | 31232 ft | 421 kts | 52° |
| 2026-04-28 04:35 | 52.10891 | 6.56336 | 31245 ft | 420 kts | 52° |
| 2026-04-28 04:36 | 52.14371 | 6.63964 | 31235 ft | 419 kts | 52° |
| 2026-04-28 04:36 | 52.17844 | 6.71589 | 31238 ft | 419 kts | 52° |
| 2026-04-28 04:37 | 52.21315 | 6.79230 | 31238 ft | 419 kts | 52° |
| 2026-04-28 04:37 | 52.24775 | 6.86869 | 31242 ft | 419 kts | 52° |
| 2026-04-28 04:38 | 52.28231 | 6.94521 | 31232 ft | 419 kts | 52° |
| 2026-04-28 04:38 | 52.31689 | 7.02200 | 31254 ft | 419 kts | 52° |
| 2026-04-28 04:39 | 52.35124 | 7.09853 | 31247 ft | 416 kts | 52° |
| 2026-04-28 04:39 | 52.38538 | 7.17482 | 31250 ft | 415 kts | 52° |
| 2026-04-28 04:40 | 52.41952 | 7.25130 | 31258 ft | 415 kts | 52° |
| 2026-04-28 04:40 | 52.45357 | 7.32783 | 31265 ft | 415 kts | 52° |
| 2026-04-28 04:40 | 52.47045 | 7.36586 | 31079 ft | 412 kts | 52° |
| 2026-04-28 04:41 | 52.48725 | 7.40378 | 30613 ft | 409 kts | 52° |
| 2026-04-28 04:41 | 52.50390 | 7.44140 | 30092 ft | 409 kts | 52° |
| 2026-04-28 04:41 | 52.52040 | 7.47871 | 29518 ft | 409 kts | 53° |
| 2026-04-28 04:41 | 52.53715 | 7.51668 | 28920 ft | 409 kts | 52° |
| 2026-04-28 04:42 | 52.55385 | 7.55457 | 28388 ft | 408 kts | 52° |
| 2026-04-28 04:42 | 52.57037 | 7.59213 | 27848 ft | 407 kts | 53° |
| 2026-04-28 04:42 | 52.58697 | 7.62991 | 27296 ft | 406 kts | 53° |
| 2026-04-28 04:42 | 52.60349 | 7.66756 | 26776 ft | 406 kts | 53° |
| 2026-04-28 04:43 | 52.62002 | 7.70530 | 26270 ft | 406 kts | 53° |
| 2026-04-28 04:43 | 52.63647 | 7.74290 | 25766 ft | 405 kts | 53° |
| 2026-04-28 04:43 | 52.65294 | 7.78060 | 25267 ft | 405 kts | 53° |
| 2026-04-28 04:43 | 52.66935 | 7.81823 | 24779 ft | 404 kts | 54° |
| 2026-04-28 04:44 | 52.68576 | 7.85593 | 24297 ft | 404 kts | 54° |
| 2026-04-28 04:44 | 52.70209 | 7.89348 | 23823 ft | 404 kts | 54° |
| 2026-04-28 04:44 | 52.71843 | 7.93110 | 23263 ft | 401 kts | 54° |
| 2026-04-28 04:44 | 52.73461 | 7.96843 | 22723 ft | 397 kts | 54° |
| 2026-04-28 04:45 | 52.75059 | 8.00539 | 22190 ft | 393 kts | 53° |
| 2026-04-28 04:45 | 52.76628 | 8.04172 | 21641 ft | 387 kts | 53° |
| 2026-04-28 04:45 | 52.78184 | 8.07774 | 21120 ft | 382 kts | 54° |
| 2026-04-28 04:45 | 52.79714 | 8.11321 | 20628 ft | 377 kts | 53° |
| 2026-04-28 04:46 | 52.81231 | 8.14844 | 20114 ft | 373 kts | 53° |
| 2026-04-28 04:46 | 52.82715 | 8.18296 | 19630 ft | 369 kts | 54° |
| 2026-04-28 04:46 | 52.84193 | 8.21740 | 19142 ft | 364 kts | 54° |
| 2026-04-28 04:46 | 52.85651 | 8.25141 | 18668 ft | 359 kts | 54° |
| 2026-04-28 04:47 | 52.87092 | 8.28506 | 18128 ft | 356 kts | 54° |
| 2026-04-28 04:47 | 52.88515 | 8.31835 | 17611 ft | 352 kts | 54° |
| 2026-04-28 04:47 | 52.89928 | 8.35145 | 17073 ft | 349 kts | 54° |
| 2026-04-28 04:47 | 52.91323 | 8.38416 | 16542 ft | 346 kts | 54° |
| 2026-04-28 04:48 | 52.92708 | 8.41668 | 16035 ft | 343 kts | 54° |
| 2026-04-28 04:48 | 52.94076 | 8.44884 | 15546 ft | 340 kts | 54° |
| 2026-04-28 04:48 | 52.95410 | 8.48025 | 15060 ft | 337 kts | 54° |
| 2026-04-28 04:48 | 52.96757 | 8.51199 | 14573 ft | 335 kts | 54° |
| 2026-04-28 04:49 | 52.98108 | 8.54387 | 14083 ft | 332 kts | 54° |
| 2026-04-28 04:49 | 52.99417 | 8.57480 | 13547 ft | 330 kts | 54° |
| 2026-04-28 04:49 | 53.00745 | 8.60622 | 13008 ft | 327 kts | 54° |
| 2026-04-28 04:49 | 53.02030 | 8.63665 | 12517 ft | 325 kts | 54° |
| 2026-04-28 04:50 | 53.03318 | 8.66719 | 11991 ft | 322 kts | 54° |
| 2026-04-28 04:50 | 53.04603 | 8.69771 | 11485 ft | 320 kts | 54° |
| 2026-04-28 04:50 | 53.05873 | 8.72789 | 10975 ft | 317 kts | 54° |
| 2026-04-28 04:50 | 53.07129 | 8.75778 | 10499 ft | 314 kts | 55° |
| 2026-04-28 04:51 | 53.08363 | 8.78718 | 9994 ft | 305 kts | 55° |
| 2026-04-28 04:51 | 53.09555 | 8.81562 | 9456 ft | 292 kts | 55° |
| 2026-04-28 04:51 | 53.10686 | 8.84262 | 8947 ft | 278 kts | 55° |
| 2026-04-28 04:51 | 53.11774 | 8.86864 | 8424 ft | 271 kts | 55° |
| 2026-04-28 04:52 | 53.12851 | 8.89441 | 7923 ft | 270 kts | 55° |
| 2026-04-28 04:52 | 53.13916 | 8.91993 | 7487 ft | 268 kts | 55° |
| 2026-04-28 04:52 | 53.14976 | 8.94533 | 7338 ft | 266 kts | 55° |
| 2026-04-28 04:52 | 53.16034 | 8.97073 | 7318 ft | 266 kts | 55° |
| 2026-04-28 04:53 | 53.17090 | 8.99610 | 7315 ft | 266 kts | 55° |
| 2026-04-28 04:53 | 53.18143 | 9.02143 | 7086 ft | 266 kts | 55° |
| 2026-04-28 04:53 | 53.19195 | 9.04676 | 6565 ft | 267 kts | 55° |
| 2026-04-28 04:53 | 53.20256 | 9.07230 | 5985 ft | 268 kts | 56° |
| 2026-04-28 04:54 | 53.21311 | 9.09775 | 5419 ft | 265 kts | 56° |
| 2026-04-28 04:54 | 53.22342 | 9.12263 | 4850 ft | 257 kts | 56° |
| 2026-04-28 04:54 | 53.23353 | 9.14707 | 4425 ft | 253 kts | 57° |
| 2026-04-28 04:54 | 53.24355 | 9.17132 | 4158 ft | 254 kts | 57° |
| 2026-04-28 04:55 | 53.25360 | 9.19568 | 3986 ft | 263 kts | 57° |
| 2026-04-28 04:55 | 53.26394 | 9.22075 | 3964 ft | 256 kts | 57° |
| 2026-04-28 04:55 | 53.27392 | 9.24494 | 3970 ft | 252 kts | 57° |
| 2026-04-28 04:55 | 53.28384 | 9.26906 | 3966 ft | 251 kts | 57° |
| 2026-04-28 04:56 | 53.29373 | 9.29310 | 3968 ft | 251 kts | 57° |
| 2026-04-28 04:56 | 53.30361 | 9.31715 | 3969 ft | 251 kts | 57° |
| 2026-04-28 04:56 | 53.31350 | 9.34123 | 3968 ft | 251 kts | 57° |
| 2026-04-28 04:56 | 53.32335 | 9.36525 | 3969 ft | 251 kts | 57° |
| 2026-04-28 04:57 | 53.33323 | 9.38935 | 3969 ft | 251 kts | 57° |
| 2026-04-28 04:57 | 53.34312 | 9.41349 | 3968 ft | 251 kts | 57° |
| 2026-04-28 04:57 | 53.35137 | 9.43908 | 3970 ft | 250 kts | 66° |
| 2026-04-28 04:57 | 53.35974 | 9.46460 | 3971 ft | 251 kts | 57° |
| 2026-04-28 04:58 | 53.37051 | 9.48786 | 3958 ft | 250 kts | 53° |
| 2026-04-28 04:58 | 53.38111 | 9.50947 | 3973 ft | 231 kts | 53° |
| 2026-04-28 04:58 | 53.39076 | 9.52946 | 3992 ft | 211 kts | 54° |
| 2026-04-28 04:58 | 53.39948 | 9.54784 | 3998 ft | 195 kts | 54° |
| 2026-04-28 04:59 | 53.40810 | 9.56630 | 3964 ft | 205 kts | 54° |
| 2026-04-28 04:59 | 53.41686 | 9.58519 | 3717 ft | 203 kts | 54° |
| 2026-04-28 04:59 | 53.42549 | 9.60336 | 3427 ft | 194 kts | 54° |
| 2026-04-28 04:59 | 53.43357 | 9.62029 | 3150 ft | 180 kts | 55° |
| 2026-04-28 05:00 | 53.44104 | 9.63608 | 2886 ft | 167 kts | 56° |
| 2026-04-28 05:00 | 53.44803 | 9.65084 | 2641 ft | 155 kts | 56° |
| 2026-04-28 05:00 | 53.45437 | 9.66424 | 2466 ft | 139 kts | 57° |
| 2026-04-28 05:00 | 53.46018 | 9.67652 | 2263 ft | 132 kts | 58° |
| 2026-04-28 05:01 | 53.46586 | 9.68854 | 2090 ft | 132 kts | 58° |
| 2026-04-28 05:01 | 53.46963 | 9.69654 | 1961 ft | 132 kts | 58° |
| 2026-04-28 05:01 | 53.47536 | 9.70858 | 1815 ft | 132 kts | 57° |
| 2026-04-28 05:01 | 53.48112 | 9.72058 | 1603 ft | 132 kts | 57° |
| 2026-04-28 05:02 | 53.48678 | 9.73265 | 1372 ft | 130 kts | 60° |
| 2026-04-28 05:02 | 53.49257 | 9.74439 | 1182 ft | 131 kts | 55° |
| 2026-04-28 05:02 | 53.49822 | 9.75625 | 995 ft | 129 kts | 56° |
| 2026-04-28 05:02 | 53.50370 | 9.76825 | 882 ft | 131 kts | 55° |
| 2026-04-28 05:03 | 53.50916 | 9.78050 | 618 ft | 129 kts | 54° |
| 2026-04-28 05:03 | 53.51488 | 9.79200 | 430 ft | 129 kts | 51° |
| 2026-04-28 05:03 | 53.52047 | 9.80379 | 249 ft | 128 kts | 53° |
| 2026-04-28 05:03 | 53.52591 | 9.81551 | 100 ft | 128 kts | 52° |
| 2026-04-28 05:04 | 53.53135 | 9.82693 | 27 ft | 117 kts | 52° |
| 2026-04-28 05:04 | 53.53556 | 9.83599 | 27 ft | 74 kts | 52° |
| 2026-04-28 05:04 | 53.53762 | 9.84036 | 26 ft | 32 kts | 51° |
| 2026-04-28 05:04 | 53.53916 | 9.84362 | 28 ft | 36 kts | 52° |
| 2026-04-28 05:05 | 53.54062 | 9.84678 | 26 ft | 33 kts | 51° |
| 2026-04-28 05:05 | 53.54204 | 9.84949 | 28 ft | 29 kts | 23° |
| 2026-04-28 05:05 | 53.54279 | 9.85048 | 30 ft | 3 kts | 117° |
| 2026-04-28 05:05 | 53.54269 | 9.85057 | 30 ft | 5 kts | 165° |
| 2026-04-28 05:06 | 53.54197 | 9.84962 | 28 ft | 25 kts | 232° |
| 2026-04-28 05:06 | 53.54078 | 9.84711 | 26 ft | 28 kts | 229° |
| 2026-04-28 05:06 | 53.53955 | 9.84450 | 27 ft | 29 kts | 232° |
| 2026-04-28 05:06 | 53.53831 | 9.84187 | 27 ft | 29 kts | 230° |
| 2026-04-28 05:07 | 53.53702 | 9.83914 | 30 ft | 31 kts | 232° |
| 2026-04-28 05:07 | 53.53567 | 9.83629 | 28 ft | 32 kts | 231° |
| 2026-04-28 05:07 | 53.53431 | 9.83341 | 31 ft | 32 kts | 231° |
| 2026-04-28 05:07 | 53.53361 | 9.83063 | 31 ft | 23 kts | 313° |
| 2026-04-28 05:08 | 53.53424 | 9.82978 | 31 ft | 0 kts | 321° |
| 2026-04-28 05:08 | 53.53425 | 9.82976 | 31 ft | 0 kts | 321° |
| 2026-04-28 05:08 | 53.53428 | 9.82972 | 31 ft | 2 kts | 321° |
| 2026-04-28 05:09 | 53.53451 | 9.82940 | 31 ft | 10 kts | 321° |
| 2026-04-28 05:09 | 53.53505 | 9.82866 | 30 ft | 9 kts | 321° |
| 2026-04-28 05:09 | 53.53557 | 9.82796 | 29 ft | 9 kts | 324° |
| 2026-04-28 05:09 | 53.53574 | 9.82815 | 31 ft | 7 kts | 66° |
| 2026-04-28 05:10 | 53.53596 | 9.82872 | 31 ft | 0 kts | 50° |
| 2026-04-28 05:10 | 53.53599 | 9.82876 | 31 ft | 0 kts | 49° |
| 2026-04-28 05:10 | 53.53601 | 9.82881 | 30 ft | 0 kts | 48° |
| 2026-04-28 05:10 | 53.53601 | 9.82880 | 30 ft | 1 kts | 48° |
| 2026-04-28 05:11 | 53.53595 | 9.82869 | 31 ft | 0 kts | 48° |
| 2026-04-28 05:12 | 53.53600 | 9.82879 | 31 ft | 0 kts | 48° |
| 2026-04-28 05:12 | 53.53602 | 9.82882 | 30 ft | 0 kts | 48° |
| 2026-04-28 05:12 | 53.53602 | 9.82883 | 30 ft | 0 kts | 48° |